Terminal Aerodrome Forecast
Issued by NWS Jackson, MS

Home | Current Version | Previous Version | Text Only | Print | Product List | Glossary On
Versions: 1 2 3 4 5 6 7 8 9 10 11 12
987
FTUS44 KJAN 120534
TAFHBG
TAF
KHBG 120534Z 1206/1306 23007KT P6SM SKC
     FM120900 00000KT 3SM BR BKN007
     FM121100 00000KT 1/2SM FG OVC001
     FM121330 25003KT 3SM BR BKN007
     FM121500 27008KT P6SM BKN025
     FM121600 28011G17KT P6SM FEW250=

USA.gov is the U.S. government's official web portal to all federal, state and local government web resources and services.